Time;durP1;ratioP1;P1;durP2;ratioP2;P2;SDS_P1;SDS_P2;PMS_P1;PMS_P2;Temp;Humidity;BMP_temperature;BMP_pressure;BME280_temperature;BME280_humidity;BME280_pressure;Samples;Min_cycle;Max_cycle;Signal;HPM_P1;HPM_P2
2022/09/29 00:00:27;;;;;;;37.63;22.17;;;;;;;9.20;100.00;99880.89;1749979;81;22213;-37
2022/09/29 00:02:53;;;;;;;32.30;21.93;;;;;;;9.11;100.00;99879.81;1722658;82;21549;-37
2022/09/29 00:05:20;;;;;;;29.72;22.07;;;;;;;9.03;100.00;99882.55;1744481;82;20973;-37
2022/09/29 00:07:48;;;;;;;33.00;21.80;;;;;;;8.95;100.00;99881.01;1736047;82;21475;-38
2022/09/29 00:10:16;;;;;;;31.73;21.75;;;;;;;8.87;100.00;99893.64;1735855;82;20940;-37
2022/09/29 00:12:42;;;;;;;33.58;21.82;;;;;;;8.81;100.00;99891.61;1735900;81;20929;-37
2022/09/29 00:15:10;;;;;;;34.48;21.10;;;;;;;8.77;100.00;99894.72;1735977;82;20897;-37
2022/09/29 00:17:37;;;;;;;34.80;21.42;;;;;;;8.77;100.00;99892.14;1735923;82;20933;-38
2022/09/29 00:20:05;;;;;;;34.30;21.77;;;;;;;8.78;100.00;99892.55;1736275;82;21459;-37
2022/09/29 00:22:32;;;;;;;30.37;21.07;;;;;;;8.82;100.00;99898.48;1736185;82;21534;-37
2022/09/29 00:24:58;;;;;;;38.50;21.05;;;;;;;8.85;100.00;99899.73;1735880;82;20992;-38
2022/09/29 00:27:25;;;;;;;34.67;21.60;;;;;;;8.89;100.00;99907.36;1715210;82;20953;-37
2022/09/29 00:29:52;;;;;;;40.67;20.68;;;;;;;8.93;100.00;99907.30;1735852;82;20964;-37
2022/09/29 00:32:19;;;;;;;27.15;19.85;;;;;;;8.96;100.00;99900.77;1736003;82;21312;-37
2022/09/29 00:34:46;;;;;;;26.20;19.37;;;;;;;9.01;100.00;99909.30;1735923;82;20989;-37
2022/09/29 00:37:13;;;;;;;31.05;19.07;;;;;;;9.06;100.00;99917.80;1735946;82;21055;-37
2022/09/29 00:39:40;;;;;;;24.75;18.62;;;;;;;9.11;100.00;99912.09;1736040;82;21576;-37
2022/09/29 00:42:12;;;;;;;30.95;20.50;;;;;;;9.18;100.00;99919.27;1735952;82;20952;-38
2022/09/29 00:45:02;;;;;;;29.80;19.07;;;;;;;9.23;100.00;99918.72;1715019;82;21274;-38
2022/09/29 00:47:29;;;;;;;29.27;19.25;;;;;;;9.28;100.00;99910.89;1735972;82;21463;-37
2022/09/29 00:50:04;;;;;;;30.32;19.27;;;;;;;9.33;100.00;99924.55;1736026;81;20886;-38
2022/09/29 00:52:35;;;;;;;33.10;20.80;;;;;;;9.36;100.00;99917.19;1719442;80;20969;-38
2022/09/29 00:55:17;;;;;;;28.80;20.08;;;;;;;9.38;100.00;99918.83;1735923;82;20933;-38
2022/09/29 00:57:51;;;;;;;25.68;20.08;;;;;;;9.42;100.00;99919.63;1736157;82;22018;-37
2022/09/29 01:00:18;;;;;;;25.70;18.62;;;;;;;9.44;100.00;99923.85;1735102;82;20937;-38
2022/09/29 01:02:54;;;;;;;29.15;18.42;;;;;;;9.47;100.00;99923.81;1735996;82;20981;-37
2022/09/29 01:05:27;;;;;;;29.32;18.80;;;;;;;9.51;100.00;99919.86;1739677;81;20976;-37
2022/09/29 01:07:55;;;;;;;31.90;18.80;;;;;;;9.54;100.00;99923.21;1749865;82;20884;-37
2022/09/29 01:10:21;;;;;;;30.35;18.60;;;;;;;9.57;100.00;99927.47;1749972;82;21260;-38
2022/09/29 01:12:48;;;;;;;22.27;18.20;;;;;;;9.58;100.00;99922.70;1750031;81;21585;-37
2022/09/29 01:15:17;;;;;;;30.72;19.20;;;;;;;9.57;100.00;99929.59;1749981;82;20900;-37
2022/09/29 01:17:46;;;;;;;27.05;18.30;;;;;;;9.58;100.00;99926.59;1749983;82;20904;-38
2022/09/29 01:20:19;;;;;;;27.00;19.60;;;;;;;9.58;100.00;99934.34;1749966;82;21043;-37
2022/09/29 01:23:14;;;;;;;26.55;19.07;;;;;;;9.59;100.00;99932.99;1750220;82;21101;-37
2022/09/29 01:25:49;;;;;;;33.73;20.25;;;;;;;9.58;100.00;99935.62;1749789;81;21003;-38
2022/09/29 01:28:36;;;;;;;27.90;18.90;;;;;;;9.52;100.00;99935.31;1749241;82;20979;-37
2022/09/29 01:31:21;;;;;;;26.37;17.45;;;;;;;9.44;100.00;99935.48;1749275;82;21536;-39
2022/09/29 01:34:05;;;;;;;30.65;17.52;;;;;;;9.34;100.00;99937.41;1750095;82;21071;-37
2022/09/29 01:36:43;;;;;;;32.35;18.62;;;;;;;9.25;100.00;99947.11;1750064;81;21245;-37
2022/09/29 01:39:22;;;;;;;26.70;18.73;;;;;;;9.17;100.00;99951.14;1749828;81;21004;-38
2022/09/29 01:42:19;;;;;;;32.95;20.17;;;;;;;9.11;100.00;99947.41;1722427;80;21485;-37
2022/09/29 01:44:51;;;;;;;29.70;20.00;;;;;;;9.05;100.00;99952.24;1749755;82;20956;-37
2022/09/29 01:47:26;;;;;;;30.10;19.52;;;;;;;9.01;100.00;99950.61;1749935;82;20980;-38
2022/09/29 01:49:58;;;;;;;23.53;18.37;;;;;;;8.99;100.00;99954.95;1721762;82;21284;-38
2022/09/29 01:52:28;;;;;;;27.77;20.25;;;;;;;8.93;100.00;99957.63;1750204;80;21023;-38
2022/09/29 01:55:11;;;;;;;32.25;19.60;;;;;;;8.85;100.00;99966.38;1750056;82;21403;-37
2022/09/29 01:58:00;;;;;;;27.00;19.25;;;;;;;8.77;100.00;99960.07;1749156;82;20900;-37
2022/09/29 02:00:30;;;;;;;31.45;19.92;;;;;;;8.71;100.00;99956.75;1749796;80;21011;-38
2022/09/29 02:03:10;;;;;;;27.48;19.60;;;;;;;8.63;100.00;99960.78;1749914;82;21135;-38
2022/09/29 02:06:01;;;;;;;27.02;16.82;;;;;;;8.58;100.00;99962.15;1749757;81;20855;-37
2022/09/29 02:08:43;;;;;;;24.32;17.37;;;;;;;8.52;100.00;99964.84;1749806;82;21023;-38
2022/09/29 02:11:13;;;;;;;30.32;20.02;;;;;;;8.42;100.00;99968.41;1750105;82;20944;-37
2022/09/29 02:14:11;;;;;;;32.75;20.72;;;;;;;8.34;100.00;99965.53;1749780;82;20928;-37
2022/09/29 02:16:42;;;;;;;29.40;19.35;;;;;;;8.33;100.00;99962.97;1749852;81;21052;-37
2022/09/29 02:19:26;;;;;;;24.70;17.92;;;;;;;8.31;100.00;99961.72;1749803;82;20921;-38
2022/09/29 02:21:53;;;;;;;31.75;20.55;;;;;;;8.29;100.00;99972.50;1750022;82;20936;-37
2022/09/29 02:24:21;;;;;;;26.93;17.82;;;;;;;8.25;100.00;99975.15;1749832;82;21023;-37
2022/09/29 02:26:48;;;;;;;28.50;18.37;;;;;;;8.25;100.00;99981.59;1749969;82;21415;-37
2022/09/29 02:29:15;;;;;;;25.10;17.85;;;;;;;8.22;100.00;99976.06;1749894;82;21098;-37
2022/09/29 02:31:43;;;;;;;28.73;17.65;;;;;;;8.22;100.00;99981.65;1749725;82;20892;-37
2022/09/29 02:34:14;;;;;;;28.30;19.15;;;;;;;8.17;100.00;99989.02;1750051;82;21027;-37
2022/09/29 02:36:55;;;;;;;27.50;18.15;;;;;;;8.15;100.00;99984.75;1747241;81;20968;-38
2022/09/29 02:39:45;;;;;;;24.20;18.40;;;;;;;8.18;100.00;99986.86;1737743;82;20905;-37
2022/09/29 02:42:39;;;;;;;28.83;19.23;;;;;;;8.15;100.00;99992.48;1749916;82;21264;-37
2022/09/29 02:45:23;;;;;;;30.00;18.15;;;;;;;8.12;100.00;99992.54;1749673;82;21557;-37
2022/09/29 02:48:07;;;;;;;28.10;18.35;;;;;;;8.11;100.00;100003.73;1749849;82;20999;-37
2022/09/29 02:51:14;;;;;;;29.32;18.82;;;;;;;8.12;100.00;100008.02;1749981;82;20889;-37
2022/09/29 02:54:23;;;;;;;28.67;19.17;;;;;;;8.11;100.00;100009.75;1749867;82;20992;-37
2022/09/29 02:57:01;;;;;;;26.05;17.15;;;;;;;8.08;100.00;100020.54;1741279;82;21259;-37
2022/09/29 02:59:34;;;;;;;25.45;17.20;;;;;;;8.03;100.00;100017.59;1749712;82;20937;-37
2022/09/29 03:02:02;;;;;;;28.75;17.23;;;;;;;8.01;100.00;100018.06;1749880;82;20932;-37
2022/09/29 03:04:29;;;;;;;25.45;16.73;;;;;;;7.98;100.00;100018.53;1749837;82;20909;-38
2022/09/29 03:06:56;;;;;;;33.90;16.23;;;;;;;7.93;100.00;100021.62;1749685;81;20928;-37
2022/09/29 03:09:23;;;;;;;26.05;16.02;;;;;;;7.86;100.00;100021.72;1749794;82;21215;-38
2022/09/29 03:11:49;;;;;;;28.25;17.10;;;;;;;7.79;100.00;100030.38;1749650;82;20956;-37
2022/09/29 03:14:16;;;;;;;28.30;16.97;;;;;;;7.78;100.00;100035.58;1749739;81;20976;-37
2022/09/29 03:16:43;;;;;;;29.98;18.23;;;;;;;7.79;100.00;100041.98;1749847;82;20955;-37
2022/09/29 03:19:10;;;;;;;33.48;17.75;;;;;;;7.89;100.00;100047.86;1749881;82;20991;-37
2022/09/29 03:21:37;;;;;;;25.70;17.52;;;;;;;8.01;100.00;100047.70;1749844;81;21090;-37
2022/09/29 03:24:05;;;;;;;32.83;17.77;;;;;;;8.11;100.00;100052.72;1749837;82;20976;-37
2022/09/29 03:26:33;;;;;;;29.52;18.27;;;;;;;8.20;100.00;100059.02;1750144;82;21002;-38
2022/09/29 03:29:00;;;;;;;28.67;17.45;;;;;;;8.29;100.00;100063.19;1750085;82;21525;-37
2022/09/29 03:31:27;;;;;;;26.55;16.60;;;;;;;8.40;100.00;100066.89;1750023;82;21379;-37
2022/09/29 03:33:54;;;;;;;34.90;17.27;;;;;;;8.51;100.00;100072.78;1750058;82;21862;-37
2022/09/29 03:36:21;;;;;;;30.52;18.85;;;;;;;8.60;100.00;100067.91;1749906;82;20996;-37
2022/09/29 03:38:49;;;;;;;27.67;16.97;;;;;;;8.71;100.00;100076.31;1750097;82;20967;-37
2022/09/29 03:41:15;;;;;;;25.15;17.42;;;;;;;8.80;100.00;100072.73;1749826;82;20944;-37
2022/09/29 03:43:42;;;;;;;22.48;15.98;;;;;;;8.91;100.00;100082.42;1749952;82;21378;-37
2022/09/29 03:46:09;;;;;;;27.40;16.05;;;;;;;9.00;100.00;100083.98;1749794;82;21169;-37
2022/09/29 03:48:38;;;;;;;24.40;16.07;;;;;;;9.09;100.00;100090.73;1749833;80;21497;-37
2022/09/29 03:51:06;;;;;;;24.63;14.50;;;;;;;9.20;100.00;100093.95;1749899;82;20975;-38
2022/09/29 03:53:36;;;;;;;21.70;15.72;;;;;;;9.32;100.00;100099.78;1750059;82;21482;-37
2022/09/29 03:56:03;;;;;;;19.05;15.18;;;;;;;9.41;100.00;100091.84;1750065;82;20956;-37
2022/09/29 03:58:30;;;;;;;23.92;15.35;;;;;;;9.53;100.00;100092.50;1749920;82;21156;-37
2022/09/29 04:00:57;;;;;;;20.88;15.03;;;;;;;9.63;100.00;100084.96;1749948;82;20959;-37
2022/09/29 04:03:24;;;;;;;19.50;15.03;;;;;;;9.72;100.00;100086.05;1749901;82;20932;-37
2022/09/29 04:05:51;;;;;;;18.50;14.05;;;;;;;9.82;100.00;100096.22;1749914;82;21082;-37
2022/09/29 04:08:19;;;;;;;23.55;14.73;;;;;;;9.89;100.00;100099.94;1749914;82;20900;-37
2022/09/29 04:10:46;;;;;;;19.70;14.70;;;;;;;9.99;100.00;100097.15;1750011;82;21098;-37
2022/09/29 04:13:15;;;;;;;20.05;15.38;;;;;;;10.09;100.00;100099.09;1749902;82;20972;-38
2022/09/29 04:15:41;;;;;;;18.85;13.45;;;;;;;10.18;100.00;100097.16;1749912;82;20932;-38
2022/09/29 04:18:10;;;;;;;18.85;13.05;;;;;;;10.27;100.00;100107.74;1749982;82;21030;-38
2022/09/29 04:20:38;;;;;;;19.15;13.83;;;;;;;10.33;100.00;100105.01;1749922;82;20971;-37
2022/09/29 04:23:05;;;;;;;26.17;14.28;;;;;;;10.40;100.00;100098.39;1747118;81;21970;-37
2022/09/29 04:25:33;;;;;;;18.90;14.33;;;;;;;10.47;100.00;100097.38;1749869;82;20908;-38
2022/09/29 04:28:01;;;;;;;17.67;15.10;;;;;;;10.55;100.00;100107.12;1750004;82;20991;-37
2022/09/29 04:30:28;;;;;;;19.62;13.95;;;;;;;10.63;100.00;100111.67;1749938;82;20964;-37
2022/09/29 04:32:55;;;;;;;19.65;13.35;;;;;;;10.72;100.00;100113.62;1749871;82;21482;-37
2022/09/29 04:35:22;;;;;;;16.35;13.32;;;;;;;10.77;100.00;100106.15;1749991;82;21188;-37
2022/09/29 04:37:48;;;;;;;20.60;12.73;;;;;;;10.83;100.00;100109.47;1747080;81;21553;-37
2022/09/29 04:40:16;;;;;;;13.60;11.97;;;;;;;10.83;100.00;100113.36;1749810;82;21433;-38
2022/09/29 04:42:43;;;;;;;18.30;12.13;;;;;;;10.86;100.00;100121.91;1747147;81;21588;-38
2022/09/29 04:45:10;;;;;;;17.00;12.90;;;;;;;10.91;100.00;100125.22;1749995;82;20877;-37
2022/09/29 04:47:37;;;;;;;20.08;14.35;;;;;;;10.98;100.00;100127.22;1749890;81;21817;-38
2022/09/29 04:50:05;;;;;;;18.57;15.15;;;;;;;11.07;100.00;100123.55;1749799;82;20892;-37
2022/09/29 04:52:32;;;;;;;21.02;16.85;;;;;;;11.16;100.00;100123.30;1749893;82;20885;-38
2022/09/29 04:54:59;;;;;;;23.38;19.27;;;;;;;11.29;100.00;100124.29;1749953;82;20936;-38
2022/09/29 04:57:26;;;;;;;24.43;18.67;;;;;;;11.37;100.00;100122.33;1749874;81;21613;-38
2022/09/29 04:59:52;;;;;;;29.65;17.65;;;;;;;11.48;100.00;100126.77;1749869;81;21210;-38
2022/09/29 05:02:19;;;;;;;23.22;15.23;;;;;;;11.59;100.00;100128.23;1749873;81;20849;-38
2022/09/29 05:04:46;;;;;;;15.18;12.40;;;;;;;11.69;100.00;100134.84;1746899;81;21019;-37
2022/09/29 05:07:13;;;;;;;13.60;11.15;;;;;;;11.77;100.00;100125.55;1750431;81;21592;-37
2022/09/29 05:09:41;;;;;;;19.80;11.15;;;;;;;11.86;100.00;100133.06;1754751;81;20912;-37
2022/09/29 05:12:09;;;;;;;13.70;11.28;;;;;;;11.88;100.00;100140.81;1757697;81;20940;-37
2022/09/29 05:14:35;;;;;;;18.00;10.63;;;;;;;11.92;100.00;100143.71;1757557;81;20967;-37
2022/09/29 05:17:02;;;;;;;13.62;11.78;;;;;;;11.95;100.00;100141.02;1757609;81;21047;-37
2022/09/29 05:19:31;;;;;;;16.27;11.45;;;;;;;11.95;100.00;100135.84;1757772;81;21437;-38
2022/09/29 05:21:58;;;;;;;15.00;12.73;;;;;;;11.92;100.00;100141.98;1757658;81;21375;-38
2022/09/29 05:24:26;;;;;;;14.30;12.03;;;;;;;11.86;100.00;100142.14;1757812;81;21358;-37
2022/09/29 05:26:52;;;;;;;15.95;13.03;;;;;;;11.83;100.00;100151.77;1757673;81;21485;-37
2022/09/29 05:29:19;;;;;;;15.95;13.83;;;;;;;11.81;100.00;100149.20;1757708;81;20984;-38
2022/09/29 05:31:46;;;;;;;18.25;15.48;;;;;;;11.84;100.00;100151.70;1757577;81;20912;-37
2022/09/29 05:34:13;;;;;;;21.07;16.00;;;;;;;11.93;100.00;100149.30;1757694;81;20947;-38
2022/09/29 05:36:40;;;;;;;25.10;18.42;;;;;;;12.10;100.00;100150.59;1754629;81;21033;-37
2022/09/29 05:39:07;;;;;;;27.37;17.15;;;;;;;12.30;100.00;100154.74;1757660;81;20951;-38
2022/09/29 05:41:34;;;;;;;30.15;17.40;;;;;;;12.49;100.00;100158.91;1757769;81;21520;-38
2022/09/29 05:44:01;;;;;;;24.23;17.25;;;;;;;12.69;100.00;100157.44;1757540;81;20979;-38
2022/09/29 05:46:27;;;;;;;25.72;19.32;;;;;;;12.86;100.00;100166.41;1757503;81;20896;-38
2022/09/29 05:48:57;;;;;;;29.05;20.02;;;;;;;13.00;100.00;100164.23;1757570;81;21150;-38
2022/09/29 05:51:25;;;;;;;30.27;19.30;;;;;;;13.08;100.00;100162.68;1757609;81;21026;-38
2022/09/29 05:53:53;;;;;;;22.73;18.12;;;;;;;13.14;100.00;100169.43;1757621;81;20956;-38
2022/09/29 05:56:24;;;;;;;31.73;21.52;;;;;;;13.22;100.00;100168.23;1757616;81;20881;-38
2022/09/29 05:58:53;;;;;;;32.98;20.45;;;;;;;13.30;100.00;100170.59;1754770;81;21434;-38
2022/09/29 06:01:23;;;;;;;28.73;21.55;;;;;;;13.35;100.00;100169.14;1757687;81;21056;-38
2022/09/29 06:03:52;;;;;;;27.35;20.43;;;;;;;13.31;100.00;100165.78;1757440;81;21035;-38
2022/09/29 06:06:21;;;;;;;29.02;23.50;;;;;;;13.29;100.00;100163.69;1730212;81;20853;-39
2022/09/29 06:08:49;;;;;;;32.95;23.22;;;;;;;13.30;100.00;100175.78;1757657;81;20897;-38
2022/09/29 06:11:26;;;;;;;31.73;22.15;;;;;;;13.37;100.00;100173.36;1757713;81;21481;-38
2022/09/29 06:13:54;;;;;;;31.17;23.18;;;;;;;13.45;100.00;100173.13;1757640;81;21008;-38
2022/09/29 06:16:24;;;;;;;28.42;23.07;;;;;;;13.51;100.00;100179.87;1757633;81;20959;-38
2022/09/29 06:18:51;;;;;;;32.65;23.30;;;;;;;13.58;100.00;100180.52;1729720;81;20979;-38
2022/09/29 06:21:23;;;;;;;29.40;23.18;;;;;;;13.68;100.00;100183.64;1757484;81;21529;-38
2022/09/29 06:23:51;;;;;;;25.17;21.30;;;;;;;13.82;100.00;100179.25;1757792;80;21536;-38
2022/09/29 06:26:18;;;;;;;33.50;22.17;;;;;;;13.97;100.00;100186.47;1754748;81;21143;-39
2022/09/29 06:28:45;;;;;;;30.32;23.18;;;;;;;14.05;100.00;100189.66;1757383;81;21837;-38
2022/09/29 06:31:16;;;;;;;26.05;21.80;;;;;;;14.10;100.00;100197.74;1757629;81;20900;-38
2022/09/29 06:33:43;;;;;;;24.95;22.02;;;;;;;14.20;100.00;100199.08;1757612;81;20940;-38
2022/09/29 06:39:16;;;;;;;26.68;21.62;;;;;;;14.50;100.00;100202.72;1723904;81;22081;-38
2022/09/29 06:41:47;;;;;;;24.63;20.08;;;;;;;14.69;100.00;100202.87;1751901;81;20932;-38
2022/09/29 06:44:14;;;;;;;29.82;21.23;;;;;;;14.80;100.00;100203.77;1757663;81;20932;-38
2022/09/29 06:46:41;;;;;;;26.75;19.98;;;;;;;14.87;100.00;100207.82;1757483;81;20950;-38
2022/09/29 06:49:08;;;;;;;26.40;20.92;;;;;;;14.89;100.00;100211.21;1754760;81;20924;-38
2022/09/29 06:51:35;;;;;;;22.67;20.05;;;;;;;14.93;100.00;100211.47;1757618;81;21060;-38
2022/09/29 06:54:02;;;;;;;21.52;19.15;;;;;;;15.01;100.00;100210.30;1757539;81;20967;-38
2022/09/29 06:56:29;;;;;;;25.85;19.80;;;;;;;15.14;100.00;100210.20;1757644;81;21477;-39
2022/09/29 06:58:57;;;;;;;24.18;19.70;;;;;;;15.26;100.00;100213.20;1757452;81;20936;-38
2022/09/29 07:01:24;;;;;;;21.97;19.07;;;;;;;15.41;100.00;100217.78;1757719;81;20956;-38
2022/09/29 07:03:50;;;;;;;24.72;19.07;;;;;;;15.57;100.00;100219.75;1757634;81;21181;-38
2022/09/29 07:06:17;;;;;;;27.30;19.25;;;;;;;15.71;100.00;100215.23;1757575;81;20888;-38
2022/09/29 07:08:44;;;;;;;21.62;19.30;;;;;;;15.90;100.00;100225.73;1751015;81;20867;-38
2022/09/29 07:11:12;;;;;;;21.27;18.87;;;;;;;16.06;100.00;100220.67;1750017;82;20984;-38
2022/09/29 07:13:40;;;;;;;24.87;19.42;;;;;;;16.16;100.00;100225.02;1749876;82;20885;-38
2022/09/29 07:16:08;;;;;;;25.72;18.77;;;;;;;16.31;100.00;100230.00;1749981;82;21972;-38
2022/09/29 07:18:40;;;;;;;23.32;20.35;;;;;;;16.40;100.00;100221.72;1749823;82;20979;-39
2022/09/29 07:23:22;;;;;;;21.42;18.30;;;;;;;16.63;100.00;100228.94;1816157;79;22733;-39
2022/09/29 07:25:50;;;;;;;19.15;17.12;;;;;;;16.60;100.00;100229.95;1758481;80;21434;-38
2022/09/29 07:28:17;;;;;;;22.52;16.27;;;;;;;16.53;100.00;100225.91;1789190;80;21294;-38
2022/09/29 07:30:44;;;;;;;24.07;17.82;;;;;;;16.43;100.00;100230.75;1788898;80;20967;-38
2022/09/29 07:33:11;;;;;;;23.27;17.32;;;;;;;16.30;100.00;100238.31;1789320;80;20852;-39
2022/09/29 07:35:39;;;;;;;24.55;18.05;;;;;;;16.40;100.00;100240.48;1788945;80;20987;-38
2022/09/29 07:38:05;;;;;;;21.45;17.62;;;;;;;16.53;100.00;100236.36;1789321;80;20971;-38
2022/09/29 07:40:32;;;;;;;19.87;17.73;;;;;;;16.63;100.00;100236.78;1789449;80;21067;-38
2022/09/29 07:42:59;;;;;;;20.97;17.73;;;;;;;16.66;100.00;100240.11;1789214;80;20956;-38
2022/09/29 07:45:26;;;;;;;20.92;17.32;;;;;;;16.71;100.00;100240.34;1789216;80;20916;-38
2022/09/29 07:47:55;;;;;;;34.27;23.62;;;;;;;16.67;100.00;100240.94;1789280;79;21560;-38
2022/09/29 07:50:22;;;;;;;21.37;18.27;;;;;;;16.75;100.00;100244.06;1759206;80;20837;-38
2022/09/29 07:52:50;;;;;;;24.23;18.62;;;;;;;16.77;100.00;100242.66;1789367;80;21150;-38
2022/09/29 07:55:17;;;;;;;25.82;17.15;;;;;;;16.73;100.00;100242.42;1789026;80;20920;-38
2022/09/29 07:57:47;;;;;;;22.93;17.30;;;;;;;16.75;100.00;100244.06;1789075;80;21006;-38
2022/09/29 08:00:15;;;;;;;20.97;17.62;;;;;;;16.80;100.00;100246.46;1788994;80;21023;-38
2022/09/29 08:02:43;;;;;;;22.93;19.35;;;;;;;16.80;100.00;100242.54;1758897;80;21438;-39
2022/09/29 08:05:10;;;;;;;22.20;18.32;;;;;;;16.85;100.00;100249.69;1789131;80;21209;-39
2022/09/29 08:07:37;;;;;;;26.70;18.05;;;;;;;16.91;100.00;100254.63;1789170;80;20979;-38
2022/09/29 08:10:05;;;;;;;24.20;18.05;;;;;;;16.97;100.00;100257.84;1789147;80;21006;-38
2022/09/29 08:12:32;;;;;;;20.30;18.05;;;;;;;17.04;100.00;100254.04;1789063;80;20889;-38
2022/09/29 08:14:58;;;;;;;17.90;15.98;;;;;;;17.15;100.00;100260.92;1788927;80;20967;-38
2022/09/29 08:17:25;;;;;;;20.65;16.82;;;;;;;17.31;100.00;100258.39;1789234;80;21894;-39
2022/09/29 08:19:53;;;;;;;21.30;17.10;;;;;;;17.51;100.00;100255.23;1788950;80;20896;-39
2022/09/29 08:22:19;;;;;;;21.10;16.05;;;;;;;17.63;100.00;100265.55;1785537;79;21540;-39
2022/09/29 08:24:46;;;;;;;19.57;15.08;;;;;;;17.70;100.00;100272.14;1781414;80;20991;-39
2022/09/29 08:27:13;;;;;;;22.45;16.30;;;;;;;17.75;100.00;100268.83;1781395;80;20967;-39
2022/09/29 08:29:39;;;;;;;18.98;14.78;;;;;;;17.77;100.00;100273.99;1781392;80;21111;-39
2022/09/29 08:32:06;;;;;;;19.37;15.03;;;;;;;17.75;100.00;100274.05;1781253;80;20955;-39
2022/09/29 08:34:33;;;;;;;18.65;14.53;;;;;;;17.80;100.00;100274.66;1781059;80;20952;-39
2022/09/29 08:36:59;;;;;;;18.82;14.40;;;;;;;17.88;100.00;100281.30;1780788;80;21055;-39
2022/09/29 08:39:27;;;;;;;20.25;13.85;;;;;;;17.97;100.00;100283.42;1780934;80;20984;-39
2022/09/29 08:42:05;;;;;;;17.87;14.05;;;;;;;18.03;100.00;100292.29;1781017;80;21859;-39
2022/09/29 08:44:54;;;;;;;18.05;13.88;;;;;;;18.11;100.00;100296.30;1780555;80;21459;-39
2022/09/29 08:47:35;;;;;;;16.77;13.55;;;;;;;18.23;100.00;100294.33;1780868;80;20932;-39
2022/09/29 08:50:12;;;;;;;14.55;13.10;;;;;;;18.42;100.00;100298.59;1780824;80;21459;-39
2022/09/29 08:52:42;;;;;;;15.38;12.43;;;;;;;18.62;100.00;100302.30;1745296;80;20959;-39
2022/09/29 08:55:27;;;;;;;17.73;12.53;;;;;;;18.84;100.00;100295.87;1781069;80;21111;-40
2022/09/29 08:57:58;;;;;;;20.82;12.65;;;;;;;19.02;100.00;100300.57;1780981;80;20948;-39
2022/09/29 09:00:39;;;;;;;15.95;11.90;;;;;;;19.10;100.00;100289.65;1780980;80;20991;-39
2022/09/29 09:03:29;;;;;;;14.40;11.80;;;;;;;19.26;100.00;100288.75;1780717;80;20987;-39
2022/09/29 09:06:23;;;;;;;15.48;12.05;;;;;;;19.41;100.00;100298.37;1780884;80;20896;-40
2022/09/29 09:09:41;;;;;;;12.25;11.05;;;;;;;19.62;98.35;100299.38;1757844;80;21159;-38
2022/09/29 09:12:49;;;;;;;15.90;11.05;;;;;;;19.85;98.66;100297.98;1780577;80;20837;-39
2022/09/29 09:15:42;;;;;;;14.15;11.20;;;;;;;19.95;94.68;100306.20;1780618;80;20932;-40
2022/09/29 09:18:30;;;;;;;12.78;10.63;;;;;;;20.08;95.21;100307.16;1780415;80;20889;-38
2022/09/29 09:21:16;;;;;;;12.55;11.25;;;;;;;20.20;95.22;100308.64;1781100;80;21443;-40
2022/09/29 09:23:56;;;;;;;14.53;10.75;;;;;;;20.14;93.87;100313.80;1775960;80;21276;-40
2022/09/29 09:26:44;;;;;;;11.43;10.20;;;;;;;20.08;93.21;100315.49;1775198;80;20858;-39
2022/09/29 09:29:29;;;;;;;12.55;10.48;;;;;;;20.10;93.90;100311.84;1752871;80;20929;-40
2022/09/29 09:32:06;;;;;;;14.25;9.45;;;;;;;20.22;93.82;100312.02;1730208;80;21000;-39
2022/09/29 09:34:59;;;;;;;12.23;9.93;;;;;;;20.34;93.91;100319.16;1775430;80;21578;-39
2022/09/29 09:37:38;;;;;;;11.25;8.50;;;;;;;20.49;92.48;100318.67;1774915;80;21409;-39
2022/09/29 09:40:22;;;;;;;10.45;9.45;;;;;;;20.49;91.17;100316.50;1754078;80;20975;-39
2022/09/29 09:42:55;;;;;;;14.40;11.60;;;;;;;20.26;90.43;100325.34;1753432;80;21008;-38
2022/09/29 09:45:51;;;;;;;11.05;9.60;;;;;;;19.92;91.45;100322.14;1766214;80;22729;-39
2022/09/29 09:48:26;;;;;;;14.93;9.45;;;;;;;19.72;92.93;100316.74;1775134;80;21003;-38
2022/09/29 09:50:53;;;;;;;13.50;10.43;;;;;;;19.64;94.74;100318.02;1733433;80;23220;-39
2022/09/29 09:53:39;;;;;;;13.43;10.98;;;;;;;19.71;94.98;100314.57;1752957;80;20909;-39
2022/09/29 09:56:21;;;;;;;15.80;11.00;;;;;;;19.67;94.65;100315.20;1774995;80;21018;-39
2022/09/29 09:59:28;;;;;;;19.80;10.88;;;;;;;19.74;94.35;100296.00;1775357;80;21048;-39
2022/09/29 10:01:54;;;;;;;13.00;10.32;;;;;;;19.93;94.27;100312.02;1775125;80;21011;-38
2022/09/29 10:04:23;;;;;;;15.35;10.48;;;;;;;20.08;94.63;100321.61;1775104;80;21249;-38
2022/09/29 10:06:50;;;;;;;12.07;10.78;;;;;;;20.33;95.29;100320.07;1774814;80;20924;-39
2022/09/29 10:09:16;;;;;;;15.30;10.40;;;;;;;20.56;91.93;100320.43;1775019;80;20893;-39
2022/09/29 10:11:44;;;;;;;12.78;10.78;;;;;;;20.60;91.74;100314.06;1775028;80;20996;-39
2022/09/29 10:14:27;;;;;;;11.35;9.63;;;;;;;20.66;90.93;100311.50;1775108;80;20968;-39
2022/09/29 10:17:06;;;;;;;11.38;9.40;;;;;;;20.62;91.21;100310.86;1775013;80;21216;-39
2022/09/29 10:19:58;;;;;;;10.15;9.15;;;;;;;20.56;90.86;100313.86;1775087;80;21019;-39
2022/09/29 10:22:27;;;;;;;12.05;9.25;;;;;;;20.75;92.45;100308.75;1774971;80;21047;-38
2022/09/29 10:25:20;;;;;;;13.75;9.83;;;;;;;21.01;91.74;100302.33;1775028;80;20928;-38
2022/09/29 10:27:51;;;;;;;10.88;8.55;;;;;;;21.17;89.43;100307.42;1754352;80;21078;-39
2022/09/29 10:30:27;;;;;;;9.88;8.73;;;;;;;21.05;86.01;100305.98;1775025;80;21106;-39
2022/09/29 10:32:58;;;;;;;10.05;9.15;;;;;;;20.94;88.37;100303.19;1774476;80;20925;-39
2022/09/29 10:35:29;;;;;;;9.58;8.58;;;;;;;21.01;88.72;100307.59;1775289;80;20964;-39
2022/09/29 10:38:05;;;;;;;9.40;8.50;;;;;;;21.02;89.46;100308.81;1774793;80;20925;-39
2022/09/29 10:40:32;;;;;;;14.07;8.33;;;;;;;21.16;87.52;100308.37;1774989;80;20971;-39
2022/09/29 10:42:59;;;;;;;7.90;7.28;;;;;;;21.35;87.79;100300.95;1753107;80;21218;-39
2022/09/29 10:45:28;;;;;;;20.35;7.78;;;;;;;21.67;87.36;100306.36;1728530;80;20924;-39
2022/09/29 10:48:06;;;;;;;8.88;7.37;;;;;;;21.97;85.16;100302.58;1775158;80;20909;-39
2022/09/29 10:50:36;;;;;;;11.48;7.42;;;;;;;22.26;84.83;100301.02;1775131;80;21431;-40
2022/09/29 10:53:17;;;;;;;9.13;7.80;;;;;;;22.49;83.23;100296.80;1775008;80;21451;-40
2022/09/29 10:55:53;;;;;;;7.78;7.08;;;;;;;22.62;80.17;100293.27;1753130;80;21884;-40
2022/09/29 10:58:34;;;;;;;7.37;6.67;;;;;;;22.66;81.86;100303.50;1775337;80;20909;-40
2022/09/29 11:01:14;;;;;;;8.28;7.00;;;;;;;22.76;80.66;100294.91;1774935;80;20972;-40
2022/09/29 11:04:02;;;;;;;7.35;6.62;;;;;;;22.90;80.89;100293.91;1775219;80;20893;-40
2022/09/29 11:06:31;;;;;;;7.00;5.78;;;;;;;22.93;78.70;100296.31;1774891;80;20936;-40
2022/09/29 11:09:16;;;;;;;6.75;6.10;;;;;;;22.87;78.59;100287.53;1753378;80;21059;-40
2022/09/29 11:11:53;;;;;;;6.58;5.97;;;;;;;22.81;79.36;100292.31;1774901;80;20956;-39
2022/09/29 11:14:40;;;;;;;6.35;5.85;;;;;;;22.75;78.98;100286.63;1774920;80;20964;-38
2022/09/29 11:17:28;;;;;;;7.00;6.37;;;;;;;22.63;79.21;100281.30;1774962;80;21486;-38
2022/09/29 11:33:38;;;;;;;6.47;5.97;;;;;;;21.93;82.40;100295.34;1793496;79;22479;-39
2022/09/29 11:36:14;;;;;;;6.95;6.35;;;;;;;21.80;83.20;100299.30;1766132;81;20909;-40
2022/09/29 11:39:02;;;;;;;6.97;6.28;;;;;;;21.66;84.46;100310.77;1762066;81;21913;-40
2022/09/29 11:41:54;;;;;;;7.30;6.62;;;;;;;21.46;85.59;100308.59;1767185;81;20976;-39
2022/09/29 11:44:48;;;;;;;7.83;7.12;;;;;;;21.27;86.46;100316.42;1767534;81;20932;-39
2022/09/29 11:47:41;;;;;;;11.50;6.92;;;;;;;21.05;87.47;100322.22;1767504;81;20960;-40
2022/09/29 11:50:37;;;;;;;7.95;6.37;;;;;;;20.85;89.20;100321.75;1766505;81;22092;-38
2022/09/29 11:53:24;;;;;;;8.35;7.00;;;;;;;20.71;90.42;100328.30;1738076;81;21839;-38